sensor_id;sensor_type;location;lat;lon;timestamp;P1;durP1;ratioP1;P2;durP2;ratioP2
75486;SDS011;64068;44.762;21.514;2022-11-03T00:00:27;89.78;;;41.40;;
75486;SDS011;64068;44.762;21.514;2022-11-03T00:02:53;113.70;;;52.15;;
75486;SDS011;64068;44.762;21.514;2022-11-03T00:05:19;81.70;;;37.60;;
75486;SDS011;64068;44.762;21.514;2022-11-03T00:08:04;280.83;;;135.18;;
75486;SDS011;64068;44.762;21.514;2022-11-03T00:10:30;211.75;;;107.35;;
75486;SDS011;64068;44.762;21.514;2022-11-03T00:12:56;190.27;;;93.10;;
75486;SDS011;64068;44.762;21.514;2022-11-03T00:15:23;183.52;;;86.72;;
75486;SDS011;64068;44.762;21.514;2022-11-03T00:17:49;134.43;;;64.07;;
75486;SDS011;64068;44.762;21.514;2022-11-03T00:20:15;575.80;;;308.87;;
75486;SDS011;64068;44.762;21.514;2022-11-03T00:22:41;186.87;;;93.03;;
75486;SDS011;64068;44.762;21.514;2022-11-03T00:25:07;231.43;;;108.35;;
75486;SDS011;64068;44.762;21.514;2022-11-03T00:27:33;217.85;;;104.47;;
75486;SDS011;64068;44.762;21.514;2022-11-03T00:29:59;431.70;;;225.60;;
75486;SDS011;64068;44.762;21.514;2022-11-03T00:32:25;387.90;;;190.90;;
75486;SDS011;64068;44.762;21.514;2022-11-03T00:34:52;696.80;;;375.73;;
75486;SDS011;64068;44.762;21.514;2022-11-03T00:37:18;672.17;;;338.97;;
75486;SDS011;64068;44.762;21.514;2022-11-03T00:39:44;460.67;;;215.13;;
75486;SDS011;64068;44.762;21.514;2022-11-03T00:42:10;443.65;;;208.52;;
75486;SDS011;64068;44.762;21.514;2022-11-03T00:44:36;386.02;;;178.57;;
75486;SDS011;64068;44.762;21.514;2022-11-03T00:47:02;280.30;;;133.20;;
75486;SDS011;64068;44.762;21.514;2022-11-03T00:49:28;160.70;;;83.27;;
75486;SDS011;64068;44.762;21.514;2022-11-03T00:51:55;197.27;;;103.90;;
75486;SDS011;64068;44.762;21.514;2022-11-03T00:54:21;94.30;;;45.73;;
75486;SDS011;64068;44.762;21.514;2022-11-03T00:56:47;180.55;;;120.03;;
75486;SDS011;64068;44.762;21.514;2022-11-03T00:59:13;218.05;;;161.20;;
75486;SDS011;64068;44.762;21.514;2022-11-03T01:01:40;175.93;;;106.97;;
75486;SDS011;64068;44.762;21.514;2022-11-03T01:04:07;216.57;;;147.65;;
75486;SDS011;64068;44.762;21.514;2022-11-03T01:06:52;143.63;;;92.80;;
75486;SDS011;64068;44.762;21.514;2022-11-03T01:09:20;99.03;;;49.30;;
75486;SDS011;64068;44.762;21.514;2022-11-03T01:14:19;109.50;;;58.00;;
75486;SDS011;64068;44.762;21.514;2022-11-03T01:16:45;95.68;;;46.80;;
75486;SDS011;64068;44.762;21.514;2022-11-03T01:19:11;95.47;;;45.30;;
75486;SDS011;64068;44.762;21.514;2022-11-03T01:21:37;93.13;;;45.65;;
75486;SDS011;64068;44.762;21.514;2022-11-03T01:24:04;92.20;;;43.90;;
75486;SDS011;64068;44.762;21.514;2022-11-03T01:26:30;90.88;;;40.97;;
75486;SDS011;64068;44.762;21.514;2022-11-03T01:28:57;93.20;;;42.03;;
75486;SDS011;64068;44.762;21.514;2022-11-03T01:31:24;86.87;;;39.23;;
75486;SDS011;64068;44.762;21.514;2022-11-03T01:33:51;95.40;;;40.60;;
75486;SDS011;64068;44.762;21.514;2022-11-03T01:36:18;81.70;;;39.17;;
75486;SDS011;64068;44.762;21.514;2022-11-03T01:38:44;86.07;;;40.00;;
75486;SDS011;64068;44.762;21.514;2022-11-03T01:41:15;85.07;;;39.37;;
75486;SDS011;64068;44.762;21.514;2022-11-03T01:43:42;84.47;;;41.07;;
75486;SDS011;64068;44.762;21.514;2022-11-03T01:46:22;78.72;;;38.00;;
75486;SDS011;64068;44.762;21.514;2022-11-03T01:49:09;83.05;;;38.20;;
75486;SDS011;64068;44.762;21.514;2022-11-03T01:51:36;80.00;;;38.80;;
75486;SDS011;64068;44.762;21.514;2022-11-03T01:54:05;75.53;;;36.83;;
75486;SDS011;64068;44.762;21.514;2022-11-03T01:56:32;77.05;;;36.25;;
75486;SDS011;64068;44.762;21.514;2022-11-03T01:59:00;74.27;;;34.70;;
75486;SDS011;64068;44.762;21.514;2022-11-03T02:01:27;76.83;;;36.63;;
75486;SDS011;64068;44.762;21.514;2022-11-03T02:04:03;82.38;;;36.70;;
75486;SDS011;64068;44.762;21.514;2022-11-03T02:06:33;80.70;;;36.73;;
75486;SDS011;64068;44.762;21.514;2022-11-03T02:11:26;81.53;;;35.80;;
75486;SDS011;64068;44.762;21.514;2022-11-03T02:14:11;81.78;;;36.47;;
75486;SDS011;64068;44.762;21.514;2022-11-03T02:16:37;78.63;;;36.80;;
75486;SDS011;64068;44.762;21.514;2022-11-03T02:19:05;80.90;;;35.85;;
75486;SDS011;64068;44.762;21.514;2022-11-03T02:21:47;84.18;;;37.97;;
75486;SDS011;64068;44.762;21.514;2022-11-03T02:24:23;79.10;;;36.17;;
75486;SDS011;64068;44.762;21.514;2022-11-03T02:26:53;82.72;;;34.33;;
75486;SDS011;64068;44.762;21.514;2022-11-03T02:29:20;80.53;;;38.10;;
75486;SDS011;64068;44.762;21.514;2022-11-03T02:31:48;79.23;;;35.00;;
75486;SDS011;64068;44.762;21.514;2022-11-03T02:36:43;80.93;;;35.53;;
75486;SDS011;64068;44.762;21.514;2022-11-03T02:39:15;80.82;;;34.92;;
75486;SDS011;64068;44.762;21.514;2022-11-03T02:41:44;77.87;;;36.03;;
75486;SDS011;64068;44.762;21.514;2022-11-03T02:44:12;76.47;;;34.83;;
75486;SDS011;64068;44.762;21.514;2022-11-03T02:46:39;84.18;;;36.95;;
75486;SDS011;64068;44.762;21.514;2022-11-03T02:49:07;82.75;;;36.97;;
75486;SDS011;64068;44.762;21.514;2022-11-03T02:51:33;79.78;;;36.35;;
75486;SDS011;64068;44.762;21.514;2022-11-03T02:56:25;87.32;;;38.50;;
75486;SDS011;64068;44.762;21.514;2022-11-03T02:58:58;94.80;;;40.55;;
75486;SDS011;64068;44.762;21.514;2022-11-03T03:01:33;104.67;;;42.23;;
75486;SDS011;64068;44.762;21.514;2022-11-03T03:04:05;102.50;;;43.25;;
75486;SDS011;64068;44.762;21.514;2022-11-03T03:06:37;101.38;;;41.55;;
75486;SDS011;64068;44.762;21.514;2022-11-03T03:09:08;98.40;;;43.05;;
75486;SDS011;64068;44.762;21.514;2022-11-03T03:11:36;104.65;;;43.97;;
75486;SDS011;64068;44.762;21.514;2022-11-03T03:14:10;101.47;;;45.15;;
75486;SDS011;64068;44.762;21.514;2022-11-03T03:16:46;103.53;;;46.03;;
75486;SDS011;64068;44.762;21.514;2022-11-03T03:21:45;90.90;;;39.57;;
75486;SDS011;64068;44.762;21.514;2022-11-03T03:24:14;83.15;;;36.85;;
75486;SDS011;64068;44.762;21.514;2022-11-03T03:26:43;96.07;;;38.83;;
75486;SDS011;64068;44.762;21.514;2022-11-03T03:29:20;94.20;;;38.97;;
75486;SDS011;64068;44.762;21.514;2022-11-03T03:31:48;97.47;;;41.20;;
75486;SDS011;64068;44.762;21.514;2022-11-03T03:34:16;92.00;;;39.97;;
75486;SDS011;64068;44.762;21.514;2022-11-03T03:36:45;95.90;;;40.92;;
75486;SDS011;64068;44.762;21.514;2022-11-03T03:39:12;96.80;;;40.93;;
75486;SDS011;64068;44.762;21.514;2022-11-03T03:41:39;101.40;;;40.80;;
75486;SDS011;64068;44.762;21.514;2022-11-03T03:44:06;92.17;;;38.70;;
75486;SDS011;64068;44.762;21.514;2022-11-03T03:46:35;96.60;;;38.83;;
75486;SDS011;64068;44.762;21.514;2022-11-03T03:49:02;105.30;;;40.75;;
75486;SDS011;64068;44.762;21.514;2022-11-03T03:51:28;105.47;;;41.63;;
75486;SDS011;64068;44.762;21.514;2022-11-03T03:53:55;107.85;;;40.83;;
75486;SDS011;64068;44.762;21.514;2022-11-03T03:56:30;117.80;;;42.63;;
75486;SDS011;64068;44.762;21.514;2022-11-03T03:58:57;108.50;;;40.87;;
75486;SDS011;64068;44.762;21.514;2022-11-03T04:01:23;104.83;;;40.63;;
75486;SDS011;64068;44.762;21.514;2022-11-03T04:03:49;111.03;;;43.47;;
75486;SDS011;64068;44.762;21.514;2022-11-03T04:06:16;108.47;;;41.00;;
75486;SDS011;64068;44.762;21.514;2022-11-03T04:08:42;114.93;;;43.20;;
75486;SDS011;64068;44.762;21.514;2022-11-03T04:11:08;111.47;;;42.40;;
75486;SDS011;64068;44.762;21.514;2022-11-03T04:13:53;108.67;;;42.27;;
75486;SDS011;64068;44.762;21.514;2022-11-03T04:16:38;115.13;;;44.23;;
75486;SDS011;64068;44.762;21.514;2022-11-03T04:19:22;120.63;;;42.17;;
75486;SDS011;64068;44.762;21.514;2022-11-03T04:22:07;115.87;;;43.33;;
75486;SDS011;64068;44.762;21.514;2022-11-03T04:24:43;121.60;;;44.63;;
75486;SDS011;64068;44.762;21.514;2022-11-03T04:29:55;120.43;;;44.42;;
75486;SDS011;64068;44.762;21.514;2022-11-03T04:32:22;113.30;;;43.60;;
75486;SDS011;64068;44.762;21.514;2022-11-03T04:34:48;111.57;;;42.60;;
75486;SDS011;64068;44.762;21.514;2022-11-03T04:37:14;112.38;;;44.28;;
75486;SDS011;64068;44.762;21.514;2022-11-03T04:39:41;111.80;;;43.00;;
75486;SDS011;64068;44.762;21.514;2022-11-03T04:44:39;100.00;;;39.00;;
75486;SDS011;64068;44.762;21.514;2022-11-03T04:47:08;111.70;;;42.15;;
75486;SDS011;64068;44.762;21.514;2022-11-03T04:49:36;104.78;;;39.92;;
75486;SDS011;64068;44.762;21.514;2022-11-03T04:52:04;115.93;;;43.00;;
75486;SDS011;64068;44.762;21.514;2022-11-03T04:54:30;102.20;;;39.40;;
75486;SDS011;64068;44.762;21.514;2022-11-03T04:56:56;110.18;;;42.17;;
75486;SDS011;64068;44.762;21.514;2022-11-03T04:59:23;107.37;;;43.47;;
75486;SDS011;64068;44.762;21.514;2022-11-03T05:01:49;108.40;;;43.10;;
75486;SDS011;64068;44.762;21.514;2022-11-03T05:04:16;117.53;;;46.83;;
75486;SDS011;64068;44.762;21.514;2022-11-03T05:06:52;102.93;;;41.70;;
75486;SDS011;64068;44.762;21.514;2022-11-03T05:09:19;115.43;;;41.60;;
75486;SDS011;64068;44.762;21.514;2022-11-03T05:11:47;105.77;;;41.00;;
75486;SDS011;64068;44.762;21.514;2022-11-03T05:14:14;107.43;;;41.07;;
75486;SDS011;64068;44.762;21.514;2022-11-03T05:16:42;109.30;;;39.93;;
75486;SDS011;64068;44.762;21.514;2022-11-03T05:19:11;97.93;;;37.30;;
75486;SDS011;64068;44.762;21.514;2022-11-03T05:21:38;101.03;;;40.37;;
75486;SDS011;64068;44.762;21.514;2022-11-03T05:24:04;92.20;;;38.63;;
75486;SDS011;64068;44.762;21.514;2022-11-03T05:26:35;84.90;;;34.47;;
75486;SDS011;64068;44.762;21.514;2022-11-03T05:29:08;97.20;;;39.77;;
75486;SDS011;64068;44.762;21.514;2022-11-03T05:31:35;90.47;;;36.78;;
75486;SDS011;64068;44.762;21.514;2022-11-03T05:34:05;103.05;;;43.63;;
75486;SDS011;64068;44.762;21.514;2022-11-03T05:36:32;102.27;;;41.47;;
75486;SDS011;64068;44.762;21.514;2022-11-03T05:39:00;100.23;;;38.07;;
75486;SDS011;64068;44.762;21.514;2022-11-03T05:41:30;96.25;;;38.92;;
75486;SDS011;64068;44.762;21.514;2022-11-03T05:46:23;109.93;;;40.73;;
75486;SDS011;64068;44.762;21.514;2022-11-03T05:48:49;114.43;;;41.47;;
75486;SDS011;64068;44.762;21.514;2022-11-03T05:51:23;114.03;;;40.73;;
75486;SDS011;64068;44.762;21.514;2022-11-03T05:53:51;114.22;;;43.15;;
75486;SDS011;64068;44.762;21.514;2022-11-03T05:56:19;123.00;;;40.80;;
75486;SDS011;64068;44.762;21.514;2022-11-03T05:58:47;125.93;;;42.10;;
75486;SDS011;64068;44.762;21.514;2022-11-03T06:01:30;132.02;;;50.83;;
75486;SDS011;64068;44.762;21.514;2022-11-03T06:03:58;125.63;;;44.63;;
75486;SDS011;64068;44.762;21.514;2022-11-03T06:06:26;126.78;;;43.97;;
75486;SDS011;64068;44.762;21.514;2022-11-03T06:08:54;140.93;;;48.67;;
75486;SDS011;64068;44.762;21.514;2022-11-03T06:11:34;131.37;;;43.63;;
75486;SDS011;64068;44.762;21.514;2022-11-03T06:14:00;131.93;;;43.30;;
75486;SDS011;64068;44.762;21.514;2022-11-03T06:16:40;137.17;;;46.70;;
75486;SDS011;64068;44.762;21.514;2022-11-03T06:19:49;128.53;;;43.07;;
75486;SDS011;64068;44.762;21.514;2022-11-03T06:21:56;118.37;;;41.80;;
75486;SDS011;64068;44.762;21.514;2022-11-03T06:24:25;133.18;;;43.13;;
75486;SDS011;64068;44.762;21.514;2022-11-03T06:26:55;47.92;;;30.77;;
75486;SDS011;64068;44.762;21.514;2022-11-03T06:29:22;49.97;;;29.17;;
75486;SDS011;64068;44.762;21.514;2022-11-03T06:31:49;42.97;;;27.52;;
75486;SDS011;64068;44.762;21.514;2022-11-03T06:34:21;49.05;;;26.65;;
75486;SDS011;64068;44.762;21.514;2022-11-03T06:36:50;37.72;;;25.60;;
75486;SDS011;64068;44.762;21.514;2022-11-03T06:39:20;41.75;;;30.27;;
75486;SDS011;64068;44.762;21.514;2022-11-03T06:41:51;128.20;;;91.90;;
75486;SDS011;64068;44.762;21.514;2022-11-03T06:44:21;178.50;;;131.30;;
75486;SDS011;64068;44.762;21.514;2022-11-03T06:46:49;205.05;;;158.80;;
75486;SDS011;64068;44.762;21.514;2022-11-03T06:49:36;171.07;;;130.05;;
75486;SDS011;64068;44.762;21.514;2022-11-03T06:52:06;197.40;;;156.82;;
75486;SDS011;64068;44.762;21.514;2022-11-03T06:54:39;172.52;;;130.55;;
75486;SDS011;64068;44.762;21.514;2022-11-03T06:57:09;165.50;;;130.13;;
75486;SDS011;64068;44.762;21.514;2022-11-03T06:59:37;157.52;;;124.30;;
75486;SDS011;64068;44.762;21.514;2022-11-03T07:02:04;171.95;;;133.23;;
75486;SDS011;64068;44.762;21.514;2022-11-03T07:04:46;181.68;;;145.13;;
75486;SDS011;64068;44.762;21.514;2022-11-03T07:07:13;173.88;;;137.32;;
75486;SDS011;64068;44.762;21.514;2022-11-03T07:09:39;180.40;;;142.40;;
75486;SDS011;64068;44.762;21.514;2022-11-03T07:12:08;457.73;;;372.70;;
75486;SDS011;64068;44.762;21.514;2022-11-03T07:14:36;527.90;;;449.85;;
75486;SDS011;64068;44.762;21.514;2022-11-03T07:17:06;398.73;;;326.95;;
75486;SDS011;64068;44.762;21.514;2022-11-03T07:19:39;450.35;;;358.08;;
75486;SDS011;64068;44.762;21.514;2022-11-03T07:22:20;512.67;;;428.90;;
75486;SDS011;64068;44.762;21.514;2022-11-03T07:24:49;553.10;;;479.17;;
75486;SDS011;64068;44.762;21.514;2022-11-03T07:29:47;404.98;;;331.85;;
75486;SDS011;64068;44.762;21.514;2022-11-03T07:32:14;367.50;;;306.58;;
75486;SDS011;64068;44.762;21.514;2022-11-03T07:34:41;369.48;;;303.90;;
75486;SDS011;64068;44.762;21.514;2022-11-03T07:37:40;364.60;;;296.83;;
75486;SDS011;64068;44.762;21.514;2022-11-03T07:40:00;354.05;;;291.17;;
75486;SDS011;64068;44.762;21.514;2022-11-03T07:42:26;353.23;;;287.75;;
75486;SDS011;64068;44.762;21.514;2022-11-03T07:44:52;353.02;;;283.65;;
75486;SDS011;64068;44.762;21.514;2022-11-03T07:47:21;355.35;;;290.83;;
75486;SDS011;64068;44.762;21.514;2022-11-03T07:52:18;499.67;;;423.60;;
75486;SDS011;64068;44.762;21.514;2022-11-03T07:54:45;492.73;;;425.45;;
75486;SDS011;64068;44.762;21.514;2022-11-03T07:59:39;548.78;;;487.77;;
75486;SDS011;64068;44.762;21.514;2022-11-03T08:02:51;529.22;;;468.25;;
75486;SDS011;64068;44.762;21.514;2022-11-03T08:04:52;526.72;;;468.65;;
75486;SDS011;64068;44.762;21.514;2022-11-03T08:07:18;498.63;;;440.17;;
75486;SDS011;64068;44.762;21.514;2022-11-03T08:09:44;490.50;;;418.23;;
75486;SDS011;64068;44.762;21.514;2022-11-03T08:12:10;462.85;;;390.52;;
75486;SDS011;64068;44.762;21.514;2022-11-03T08:14:36;464.30;;;394.45;;
75486;SDS011;64068;44.762;21.514;2022-11-03T08:17:02;464.23;;;390.85;;
75486;SDS011;64068;44.762;21.514;2022-11-03T08:19:29;448.52;;;380.95;;
75486;SDS011;64068;44.762;21.514;2022-11-03T08:21:55;452.65;;;379.90;;
75486;SDS011;64068;44.762;21.514;2022-11-03T08:24:21;438.73;;;369.35;;
75486;SDS011;64068;44.762;21.514;2022-11-03T08:26:47;438.83;;;365.75;;
75486;SDS011;64068;44.762;21.514;2022-11-03T08:29:14;440.52;;;361.63;;
75486;SDS011;64068;44.762;21.514;2022-11-03T08:31:41;430.27;;;357.17;;
75486;SDS011;64068;44.762;21.514;2022-11-03T08:34:08;427.83;;;353.58;;
75486;SDS011;64068;44.762;21.514;2022-11-03T08:36:34;432.13;;;353.88;;
75486;SDS011;64068;44.762;21.514;2022-11-03T08:39:01;409.33;;;340.92;;
75486;SDS011;64068;44.762;21.514;2022-11-03T08:41:27;415.00;;;342.65;;
75486;SDS011;64068;44.762;21.514;2022-11-03T08:43:53;407.77;;;331.38;;
75486;SDS011;64068;44.762;21.514;2022-11-03T08:46:19;403.13;;;326.67;;
75486;SDS011;64068;44.762;21.514;2022-11-03T08:48:45;400.88;;;327.90;;
75486;SDS011;64068;44.762;21.514;2022-11-03T08:51:12;386.15;;;323.00;;
75486;SDS011;64068;44.762;21.514;2022-11-03T08:53:39;376.55;;;311.52;;
75486;SDS011;64068;44.762;21.514;2022-11-03T08:56:06;366.65;;;306.63;;
75486;SDS011;64068;44.762;21.514;2022-11-03T08:58:33;368.40;;;308.50;;
75486;SDS011;64068;44.762;21.514;2022-11-03T09:00:59;375.08;;;310.17;;
75486;SDS011;64068;44.762;21.514;2022-11-03T09:03:25;358.80;;;305.45;;
75486;SDS011;64068;44.762;21.514;2022-11-03T09:05:51;362.33;;;299.50;;
75486;SDS011;64068;44.762;21.514;2022-11-03T09:08:17;371.38;;;302.13;;
75486;SDS011;64068;44.762;21.514;2022-11-03T09:10:43;359.35;;;294.75;;
75486;SDS011;64068;44.762;21.514;2022-11-03T09:13:09;356.55;;;290.17;;
75486;SDS011;64068;44.762;21.514;2022-11-03T09:15:35;343.85;;;289.58;;
75486;SDS011;64068;44.762;21.514;2022-11-03T09:18:02;342.70;;;289.00;;
75486;SDS011;64068;44.762;21.514;2022-11-03T09:20:28;344.90;;;286.00;;
75486;SDS011;64068;44.762;21.514;2022-11-03T09:22:55;337.77;;;280.88;;
75486;SDS011;64068;44.762;21.514;2022-11-03T09:25:21;330.70;;;276.50;;
75486;SDS011;64068;44.762;21.514;2022-11-03T09:27:48;328.10;;;275.60;;
75486;SDS011;64068;44.762;21.514;2022-11-03T09:30:14;326.33;;;274.77;;
75486;SDS011;64068;44.762;21.514;2022-11-03T09:32:41;390.38;;;320.52;;
75486;SDS011;64068;44.762;21.514;2022-11-03T09:35:08;366.70;;;299.77;;
75486;SDS011;64068;44.762;21.514;2022-11-03T09:37:34;457.75;;;385.52;;
75486;SDS011;64068;44.762;21.514;2022-11-03T09:40:00;452.05;;;383.50;;
75486;SDS011;64068;44.762;21.514;2022-11-03T09:42:28;460.10;;;383.52;;
75486;SDS011;64068;44.762;21.514;2022-11-03T09:44:54;471.98;;;391.48;;
75486;SDS011;64068;44.762;21.514;2022-11-03T09:47:31;517.90;;;447.33;;
75486;SDS011;64068;44.762;21.514;2022-11-03T09:49:58;537.13;;;455.13;;
75486;SDS011;64068;44.762;21.514;2022-11-03T09:52:24;498.90;;;427.00;;
75486;SDS011;64068;44.762;21.514;2022-11-03T09:54:51;503.63;;;429.17;;
75486;SDS011;64068;44.762;21.514;2022-11-03T09:57:19;494.55;;;418.48;;
75486;SDS011;64068;44.762;21.514;2022-11-03T09:59:46;497.23;;;411.65;;
75486;SDS011;64068;44.762;21.514;2022-11-03T10:02:34;505.67;;;409.85;;
75486;SDS011;64068;44.762;21.514;2022-11-03T10:04:59;502.75;;;407.33;;
75486;SDS011;64068;44.762;21.514;2022-11-03T10:07:27;503.02;;;396.02;;
75486;SDS011;64068;44.762;21.514;2022-11-03T10:09:53;502.10;;;396.77;;
75486;SDS011;64068;44.762;21.514;2022-11-03T10:12:20;502.23;;;386.75;;
75486;SDS011;64068;44.762;21.514;2022-11-03T10:14:48;495.20;;;385.20;;
75486;SDS011;64068;44.762;21.514;2022-11-03T10:17:16;481.58;;;374.05;;
75486;SDS011;64068;44.762;21.514;2022-11-03T10:19:44;474.27;;;373.50;;
75486;SDS011;64068;44.762;21.514;2022-11-03T10:23:42;41.92;;;25.20;;
75486;SDS011;64068;44.762;21.514;2022-11-03T10:26:09;43.92;;;25.95;;
75486;SDS011;64068;44.762;21.514;2022-11-03T10:28:36;67.70;;;33.85;;
75486;SDS011;64068;44.762;21.514;2022-11-03T10:31:07;73.72;;;34.08;;
75486;SDS011;64068;44.762;21.514;2022-11-03T10:33:52;53.53;;;28.27;;
75486;SDS011;64068;44.762;21.514;2022-11-03T10:38:45;45.47;;;25.92;;
75486;SDS011;64068;44.762;21.514;2022-11-03T10:41:16;52.10;;;28.30;;
75486;SDS011;64068;44.762;21.514;2022-11-03T10:43:43;49.00;;;26.85;;
75486;SDS011;64068;44.762;21.514;2022-11-03T10:48:36;55.10;;;32.28;;
75486;SDS011;64068;44.762;21.514;2022-11-03T10:51:03;45.70;;;27.63;;
75486;SDS011;64068;44.762;21.514;2022-11-03T10:53:29;57.38;;;32.08;;
75486;SDS011;64068;44.762;21.514;2022-11-03T10:55:56;51.53;;;28.40;;
75486;SDS011;64068;44.762;21.514;2022-11-03T10:58:22;50.10;;;31.00;;
75486;SDS011;64068;44.762;21.514;2022-11-03T11:00:49;51.80;;;32.10;;
75486;SDS011;64068;44.762;21.514;2022-11-03T11:03:15;59.67;;;33.15;;
75486;SDS011;64068;44.762;21.514;2022-11-03T11:05:44;51.00;;;29.25;;
75486;SDS011;64068;44.762;21.514;2022-11-03T11:08:12;45.17;;;27.55;;
75486;SDS011;64068;44.762;21.514;2022-11-03T11:10:41;47.45;;;30.70;;
75486;SDS011;64068;44.762;21.514;2022-11-03T11:15:38;40.03;;;26.45;;
75486;SDS011;64068;44.762;21.514;2022-11-03T11:18:04;46.20;;;25.92;;
75486;SDS011;64068;44.762;21.514;2022-11-03T11:28:26;45.13;;;24.02;;
75486;SDS011;64068;44.762;21.514;2022-11-03T11:33:22;36.80;;;23.20;;
75486;SDS011;64068;44.762;21.514;2022-11-03T11:40:59;29.60;;;21.88;;
75486;SDS011;64068;44.762;21.514;2022-11-03T11:43:26;32.17;;;20.80;;
75486;SDS011;64068;44.762;21.514;2022-11-03T11:48:37;30.35;;;23.02;;
75486;SDS011;64068;44.762;21.514;2022-11-03T11:51:06;31.00;;;21.95;;
75486;SDS011;64068;44.762;21.514;2022-11-03T11:53:36;34.13;;;23.10;;
75486;SDS011;64068;44.762;21.514;2022-11-03T11:56:03;29.30;;;21.77;;
75486;SDS011;64068;44.762;21.514;2022-11-03T12:01:18;32.42;;;23.15;;
75486;SDS011;64068;44.762;21.514;2022-11-03T12:03:46;39.53;;;22.60;;
75486;SDS011;64068;44.762;21.514;2022-11-03T12:06:12;30.92;;;21.55;;
75486;SDS011;64068;44.762;21.514;2022-11-03T12:08:39;28.13;;;21.90;;
75486;SDS011;64068;44.762;21.514;2022-11-03T12:11:06;29.83;;;22.25;;
75486;SDS011;64068;44.762;21.514;2022-11-03T12:16:01;27.52;;;23.52;;
75486;SDS011;64068;44.762;21.514;2022-11-03T12:20:54;33.92;;;25.88;;
75486;SDS011;64068;44.762;21.514;2022-11-03T12:23:33;27.95;;;20.90;;
75486;SDS011;64068;44.762;21.514;2022-11-03T12:26:00;23.33;;;19.25;;
75486;SDS011;64068;44.762;21.514;2022-11-03T12:28:34;26.20;;;20.17;;
75486;SDS011;64068;44.762;21.514;2022-11-03T12:31:02;29.08;;;22.33;;
75486;SDS011;64068;44.762;21.514;2022-11-03T12:33:28;36.42;;;23.48;;
75486;SDS011;64068;44.762;21.514;2022-11-03T12:35:55;22.48;;;20.08;;
75486;SDS011;64068;44.762;21.514;2022-11-03T12:38:22;84.90;;;22.55;;
75486;SDS011;64068;44.762;21.514;2022-11-03T12:40:48;34.88;;;21.55;;
75486;SDS011;64068;44.762;21.514;2022-11-03T12:43:15;27.52;;;21.23;;
75486;SDS011;64068;44.762;21.514;2022-11-03T12:45:41;24.02;;;20.52;;
75486;SDS011;64068;44.762;21.514;2022-11-03T12:48:08;23.65;;;19.52;;
75486;SDS011;64068;44.762;21.514;2022-11-03T12:50:34;25.30;;;20.20;;
75486;SDS011;64068;44.762;21.514;2022-11-03T12:53:02;29.13;;;21.45;;
75486;SDS011;64068;44.762;21.514;2022-11-03T12:55:28;29.50;;;22.33;;
75486;SDS011;64068;44.762;21.514;2022-11-03T12:57:55;31.35;;;23.42;;
75486;SDS011;64068;44.762;21.514;2022-11-03T13:00:21;34.22;;;24.73;;
75486;SDS011;64068;44.762;21.514;2022-11-03T13:02:47;29.70;;;21.92;;
75486;SDS011;64068;44.762;21.514;2022-11-03T13:05:14;34.72;;;22.88;;
75486;SDS011;64068;44.762;21.514;2022-11-03T13:07:40;28.88;;;23.60;;
75486;SDS011;64068;44.762;21.514;2022-11-03T13:10:07;29.58;;;22.85;;
75486;SDS011;64068;44.762;21.514;2022-11-03T13:12:34;31.40;;;22.95;;
75486;SDS011;64068;44.762;21.514;2022-11-03T13:15:03;28.63;;;20.85;;
75486;SDS011;64068;44.762;21.514;2022-11-03T13:17:31;54.15;;;35.78;;
75486;SDS011;64068;44.762;21.514;2022-11-03T13:19:58;42.13;;;29.65;;
75486;SDS011;64068;44.762;21.514;2022-11-03T13:22:24;33.58;;;24.45;;
75486;SDS011;64068;44.762;21.514;2022-11-03T13:24:50;39.10;;;25.33;;
75486;SDS011;64068;44.762;21.514;2022-11-03T13:27:16;36.10;;;24.33;;
75486;SDS011;64068;44.762;21.514;2022-11-03T13:29:42;39.90;;;26.08;;
75486;SDS011;64068;44.762;21.514;2022-11-03T13:32:08;40.47;;;27.58;;
75486;SDS011;64068;44.762;21.514;2022-11-03T13:34:35;35.88;;;23.73;;
75486;SDS011;64068;44.762;21.514;2022-11-03T13:37:01;39.58;;;24.88;;
75486;SDS011;64068;44.762;21.514;2022-11-03T13:39:28;37.53;;;23.92;;
75486;SDS011;64068;44.762;21.514;2022-11-03T13:41:55;36.05;;;22.50;;
75486;SDS011;64068;44.762;21.514;2022-11-03T13:44:21;42.30;;;21.17;;
75486;SDS011;64068;44.762;21.514;2022-11-03T13:46:47;35.95;;;21.73;;
75486;SDS011;64068;44.762;21.514;2022-11-03T13:49:13;42.92;;;26.45;;
75486;SDS011;64068;44.762;21.514;2022-11-03T13:51:40;40.88;;;26.70;;
75486;SDS011;64068;44.762;21.514;2022-11-03T13:54:07;34.90;;;23.13;;
75486;SDS011;64068;44.762;21.514;2022-11-03T13:56:33;46.25;;;29.60;;
75486;SDS011;64068;44.762;21.514;2022-11-03T13:58:59;38.00;;;23.67;;
75486;SDS011;64068;44.762;21.514;2022-11-03T14:01:25;32.80;;;20.88;;
75486;SDS011;64068;44.762;21.514;2022-11-03T14:03:51;41.60;;;24.33;;
75486;SDS011;64068;44.762;21.514;2022-11-03T14:06:17;37.58;;;23.95;;
75486;SDS011;64068;44.762;21.514;2022-11-03T14:08:44;32.42;;;19.95;;
75486;SDS011;64068;44.762;21.514;2022-11-03T14:11:10;44.88;;;26.65;;
75486;SDS011;64068;44.762;21.514;2022-11-03T14:13:54;43.35;;;25.45;;
75486;SDS011;64068;44.762;21.514;2022-11-03T14:16:20;42.63;;;25.48;;
75486;SDS011;64068;44.762;21.514;2022-11-03T14:18:47;38.22;;;22.77;;
75486;SDS011;64068;44.762;21.514;2022-11-03T14:21:13;43.60;;;27.13;;
75486;SDS011;64068;44.762;21.514;2022-11-03T14:23:39;51.35;;;29.15;;
75486;SDS011;64068;44.762;21.514;2022-11-03T14:26:05;42.17;;;24.25;;
75486;SDS011;64068;44.762;21.514;2022-11-03T14:28:31;48.15;;;29.80;;
75486;SDS011;64068;44.762;21.514;2022-11-03T14:30:57;47.28;;;27.65;;
75486;SDS011;64068;44.762;21.514;2022-11-03T14:33:25;50.28;;;27.80;;
75486;SDS011;64068;44.762;21.514;2022-11-03T14:35:51;44.67;;;27.33;;
75486;SDS011;64068;44.762;21.514;2022-11-03T14:38:18;50.25;;;28.88;;
75486;SDS011;64068;44.762;21.514;2022-11-03T14:40:44;56.88;;;33.03;;
75486;SDS011;64068;44.762;21.514;2022-11-03T14:43:29;59.67;;;35.53;;
75486;SDS011;64068;44.762;21.514;2022-11-03T14:45:55;80.55;;;51.08;;
75486;SDS011;64068;44.762;21.514;2022-11-03T14:48:21;63.25;;;39.50;;
75486;SDS011;64068;44.762;21.514;2022-11-03T14:50:47;63.58;;;37.00;;
75486;SDS011;64068;44.762;21.514;2022-11-03T14:53:13;57.38;;;33.58;;
75486;SDS011;64068;44.762;21.514;2022-11-03T14:55:39;64.88;;;41.83;;
75486;SDS011;64068;44.762;21.514;2022-11-03T14:58:05;70.35;;;40.90;;
75486;SDS011;64068;44.762;21.514;2022-11-03T15:00:32;58.03;;;33.83;;
75486;SDS011;64068;44.762;21.514;2022-11-03T15:02:58;52.78;;;33.45;;
75486;SDS011;64068;44.762;21.514;2022-11-03T15:05:25;59.25;;;35.80;;
75486;SDS011;64068;44.762;21.514;2022-11-03T15:08:13;62.80;;;38.50;;